createdAt,value
2024-01-05T00:00:25.308Z,4.30
2024-01-05T00:03:33.571Z,4.60
2024-01-05T00:06:20.767Z,5.20
2024-01-05T00:09:07.777Z,3.80
2024-01-05T00:11:54.908Z,4.40
2024-01-05T00:14:41.541Z,4.20
2024-01-05T00:17:28.339Z,3.50
2024-01-05T00:20:15.706Z,3.50
2024-01-05T00:23:02.692Z,3.40
2024-01-05T00:25:50.189Z,3.20
2024-01-05T00:28:36.988Z,2.90
2024-01-05T00:31:23.830Z,3.50
2024-01-05T00:34:11.166Z,3.10
2024-01-05T00:36:58.335Z,3.20
2024-01-05T00:39:46.242Z,3.00
2024-01-05T00:42:35.522Z,2.20
2024-01-05T00:45:22.654Z,2.50
2024-01-05T00:48:09.603Z,2.90
2024-01-05T00:50:56.518Z,3.00
2024-01-05T00:53:43.754Z,2.40
2024-01-05T00:56:30.632Z,2.10
2024-01-05T00:59:21.345Z,1.90
2024-01-05T01:02:07.958Z,2.20
2024-01-05T01:04:55.671Z,2.40
2024-01-05T01:07:42.600Z,2.20
2024-01-05T01:10:29.687Z,2.80
2024-01-05T01:13:16.463Z,2.30
2024-01-05T01:16:05.207Z,2.20
2024-01-05T01:18:52.507Z,2.50
2024-01-05T01:21:39.587Z,2.00
2024-01-05T01:24:26.894Z,2.40
2024-01-05T01:27:14.317Z,2.30
2024-01-05T01:30:01.139Z,2.50
2024-01-05T01:32:48.423Z,3.20
2024-01-05T01:35:35.209Z,2.50
2024-01-05T01:38:21.951Z,2.10
2024-01-05T01:41:09.333Z,2.10
2024-01-05T01:43:56.662Z,2.30
2024-01-05T01:46:43.841Z,2.60
2024-01-05T01:49:30.878Z,2.30
2024-01-05T01:52:18.282Z,2.10
2024-01-05T01:55:05.900Z,1.80
2024-01-05T01:57:53.280Z,1.50
2024-01-05T02:00:40.417Z,2.20
2024-01-05T02:03:28.795Z,1.80
2024-01-05T02:06:15.718Z,2.20
2024-01-05T02:09:02.719Z,2.10
2024-01-05T02:11:49.485Z,2.20
2024-01-05T02:14:38.133Z,2.50
2024-01-05T02:17:32.538Z,2.60
2024-01-05T02:20:19.594Z,2.80
2024-01-05T02:23:18.802Z,2.70
2024-01-05T02:26:06.750Z,2.80
2024-01-05T02:28:53.316Z,2.20
2024-01-05T02:31:40.085Z,3.00
2024-01-05T02:34:26.766Z,2.80
2024-01-05T02:37:13.429Z,2.70
2024-01-05T02:40:00.315Z,2.50
2024-01-05T02:42:48.432Z,2.00
2024-01-05T02:45:36.271Z,2.10
2024-01-05T02:48:26.281Z,2.00
2024-01-05T02:51:15.886Z,2.20
2024-01-05T02:54:03.375Z,2.20
2024-01-05T02:56:51.305Z,1.80
2024-01-05T02:59:37.958Z,2.00
2024-01-05T03:02:24.938Z,1.90
2024-01-05T03:05:11.693Z,1.80
2024-01-05T03:07:58.707Z,2.10
2024-01-05T03:10:45.399Z,2.00
2024-01-05T03:13:32.380Z,2.30
2024-01-05T03:16:19.238Z,2.00
2024-01-05T03:19:05.996Z,2.40
2024-01-05T03:21:52.733Z,2.10
2024-01-05T03:24:39.713Z,2.50
2024-01-05T03:27:26.795Z,2.20
2024-01-05T03:30:14.013Z,2.30
2024-01-05T03:33:01.372Z,2.70
2024-01-05T03:35:49.870Z,2.90
2024-01-05T03:38:36.748Z,2.70
2024-01-05T03:41:23.749Z,3.20
2024-01-05T03:44:10.750Z,4.40
2024-01-05T03:46:57.706Z,2.70
2024-01-05T03:49:44.788Z,3.00
2024-01-05T03:52:31.954Z,2.10
2024-01-05T03:55:18.776Z,7.80
2024-01-05T03:58:05.655Z,10.90
2024-01-05T04:00:52.735Z,9.30
2024-01-05T04:03:39.910Z,4.30
2024-01-05T04:06:29.833Z,3.40
2024-01-05T04:09:16.949Z,2.90
2024-01-05T04:12:04.207Z,9.10
2024-01-05T04:14:51.245Z,26.00
2024-01-05T04:17:38.393Z,56.60
2024-01-05T04:20:25.472Z,24.80
2024-01-05T04:23:13.681Z,31.50
2024-01-05T04:26:01.876Z,16.50
2024-01-05T04:28:49.073Z,6.50
2024-01-05T04:31:36.841Z,16.80
2024-01-05T04:34:23.867Z,13.00
2024-01-05T04:37:10.529Z,9.90
2024-01-05T04:39:57.179Z,7.00
2024-01-05T04:42:44.046Z,3.50
2024-01-05T04:45:31.375Z,3.80
2024-01-05T04:48:18.848Z,4.90
2024-01-05T04:51:06.809Z,10.20
2024-01-05T04:53:53.695Z,4.50
2024-01-05T04:56:41.294Z,6.80
2024-01-05T04:59:28.583Z,5.70
2024-01-05T05:02:15.333Z,5.10
2024-01-05T05:05:05.416Z,4.90
2024-01-05T05:07:55.830Z,3.60
2024-01-05T05:10:42.740Z,3.50
2024-01-05T05:13:29.555Z,3.50
2024-01-05T05:16:16.412Z,3.50
2024-01-05T05:19:03.579Z,4.30
2024-01-05T05:21:50.749Z,5.20
2024-01-05T05:24:38.362Z,7.80
2024-01-05T05:27:25.308Z,6.30
2024-01-05T05:30:12.630Z,5.80
2024-01-05T05:32:59.967Z,6.50
2024-01-05T05:35:46.654Z,7.40
2024-01-05T05:38:33.101Z,6.00
2024-01-05T05:41:20.081Z,6.30
2024-01-05T05:44:07.079Z,5.20
2024-01-05T05:46:53.972Z,5.50
2024-01-05T05:49:41.813Z,5.80
2024-01-05T05:52:30.862Z,6.40
2024-01-05T05:55:19.259Z,6.30
2024-01-05T05:58:06.506Z,5.50
2024-01-05T06:00:53.312Z,6.60
2024-01-05T06:03:41.209Z,7.10
2024-01-05T06:06:28.497Z,13.40
2024-01-05T06:09:16.513Z,10.60
2024-01-05T06:12:05.189Z,8.10
2024-01-05T06:14:52.166Z,8.00
2024-01-05T06:17:38.862Z,7.30
2024-01-05T06:20:26.524Z,9.00
2024-01-05T06:23:15.838Z,8.90
2024-01-05T06:26:03.604Z,24.10
2024-01-05T06:28:50.890Z,14.90
2024-01-05T06:31:40.234Z,8.80
2024-01-05T06:34:27.250Z,34.50
2024-01-05T06:37:14.176Z,10.40
2024-01-05T06:40:00.744Z,9.30
2024-01-05T06:42:47.827Z,14.30
2024-01-05T06:45:34.748Z,6.10
2024-01-05T06:48:21.561Z,7.10
2024-01-05T06:51:08.824Z,8.00
2024-01-05T06:53:56.700Z,6.90
2024-01-05T06:56:44.053Z,20.70
2024-01-05T06:59:31.667Z,11.10
2024-01-05T07:02:19.129Z,9.30
2024-01-05T07:05:06.656Z,9.10
2024-01-05T07:07:53.950Z,9.30
2024-01-05T07:10:40.492Z,11.90
2024-01-05T07:13:30.386Z,12.90
2024-01-05T07:16:18.577Z,12.00
2024-01-05T07:19:05.730Z,12.60
2024-01-05T07:21:53.054Z,13.60
2024-01-05T07:24:39.887Z,15.20
2024-01-05T07:27:27.083Z,18.50
2024-01-05T07:30:15.101Z,14.20
2024-01-05T07:33:02.388Z,12.70
2024-01-05T07:35:49.667Z,12.10
2024-01-05T07:38:36.966Z,15.20
2024-01-05T07:41:23.401Z,13.90
2024-01-05T07:44:10.262Z,14.10
2024-01-05T07:46:57.229Z,15.00
2024-01-05T07:49:43.882Z,20.60
2024-01-05T07:52:31.015Z,14.90
2024-01-05T07:55:18.098Z,17.90
2024-01-05T07:58:05.502Z,23.00
2024-01-05T08:00:53.819Z,16.30
2024-01-05T08:03:40.633Z,12.70
2024-01-05T08:06:27.609Z,15.80
2024-01-05T08:09:14.332Z,14.80
2024-01-05T08:12:01.212Z,15.50
2024-01-05T08:14:51.802Z,15.50
2024-01-05T08:17:39.820Z,24.00
2024-01-05T08:20:26.874Z,30.30
2024-01-05T08:23:13.889Z,26.60
2024-01-05T08:26:00.857Z,16.10
2024-01-05T08:28:48.059Z,14.80
2024-01-05T08:31:34.784Z,19.90
2024-01-05T08:34:22.049Z,19.40
2024-01-05T08:37:09.105Z,21.80
2024-01-05T08:39:56.355Z,21.30
2024-01-05T08:42:45.316Z,16.60
2024-01-05T08:45:34.028Z,21.70
2024-01-05T08:48:23.003Z,21.00
2024-01-05T08:51:10.304Z,22.30
2024-01-05T08:53:59.547Z,20.10
2024-01-05T08:56:46.754Z,26.10
2024-01-05T08:59:34.642Z,17.20
2024-01-05T09:02:21.710Z,21.40
2024-01-05T09:05:08.981Z,21.50
2024-01-05T09:07:56.079Z,20.00
2024-01-05T09:10:43.882Z,20.10
2024-01-05T09:13:31.802Z,19.50
2024-01-05T09:16:19.247Z,23.20
2024-01-05T09:19:08.653Z,18.90
2024-01-05T09:21:55.626Z,19.10
2024-01-05T09:24:42.834Z,20.50
2024-01-05T09:27:30.813Z,21.70
2024-01-05T09:30:18.030Z,20.80
2024-01-05T09:33:08.220Z,24.90
2024-01-05T09:35:54.871Z,25.50
2024-01-05T09:38:41.323Z,26.40
2024-01-05T09:41:28.733Z,26.60
2024-01-05T09:44:19.528Z,34.90
2024-01-05T09:47:07.082Z,31.60
2024-01-05T09:49:53.972Z,28.40
2024-01-05T09:52:40.566Z,30.50
2024-01-05T09:55:27.748Z,32.20
2024-01-05T09:58:16.370Z,24.10
2024-01-05T10:01:09.350Z,21.80
2024-01-05T10:04:01.214Z,19.90
2024-01-05T10:06:59.915Z,23.60
2024-01-05T10:09:54.624Z,22.00
2024-01-05T10:12:42.416Z,21.90
2024-01-05T10:15:29.877Z,17.00
2024-01-05T10:18:20.909Z,29.00
2024-01-05T10:21:10.961Z,26.80
2024-01-05T10:23:58.752Z,78.00
2024-01-05T10:26:46.969Z,28.60
2024-01-05T10:29:35.121Z,39.40
2024-01-05T10:32:22.063Z,27.90
2024-01-05T10:35:09.714Z,37.50
2024-01-05T10:38:04.479Z,24.10
2024-01-05T10:40:51.133Z,41.60
2024-01-05T10:43:39.126Z,22.60
2024-01-05T10:46:26.713Z,27.60
2024-01-05T10:49:13.851Z,30.90
2024-01-05T10:52:02.137Z,22.80
2024-01-05T10:54:53.670Z,21.40
2024-01-05T10:57:41.078Z,26.90
2024-01-05T11:00:28.627Z,33.00
2024-01-05T11:03:16.590Z,19.90
2024-01-05T11:06:11.447Z,26.80
2024-01-05T11:09:14.983Z,24.20
2024-01-05T11:12:26.077Z,21.90
2024-01-05T11:15:25.286Z,18.40
2024-01-05T11:18:42.161Z,15.90
2024-01-05T11:22:01.422Z,20.80
2024-01-05T11:24:49.469Z,29.10
2024-01-05T11:27:38.739Z,33.70
2024-01-05T11:30:42.830Z,28.60
2024-01-05T11:33:45.972Z,28.10
2024-01-05T11:36:55.432Z,21.10
2024-01-05T11:39:54.660Z,24.20
2024-01-05T11:42:45.767Z,17.60
2024-01-05T11:45:45.443Z,24.70
2024-01-05T11:48:36.214Z,27.90
2024-01-05T11:51:23.831Z,22.10
2024-01-05T11:54:12.877Z,19.60
2024-01-05T11:57:01.422Z,16.20
2024-01-05T11:59:56.133Z,25.90
2024-01-05T12:02:42.957Z,20.60
2024-01-05T12:05:30.505Z,20.50
2024-01-05T12:08:17.464Z,20.10
2024-01-05T12:11:10.379Z,28.00
2024-01-05T12:13:57.842Z,36.50
2024-01-05T12:16:45.549Z,41.80
2024-01-05T12:19:32.274Z,31.60
2024-01-05T12:22:19.989Z,28.40
2024-01-05T12:25:07.215Z,35.50
2024-01-05T12:27:54.370Z,32.20
2024-01-05T12:30:41.703Z,23.50
2024-01-05T12:33:30.105Z,22.80
2024-01-05T12:36:30.128Z,24.70
2024-01-05T12:39:20.484Z,23.00
2024-01-05T12:42:07.797Z,18.80
2024-01-05T12:44:54.939Z,19.80
2024-01-05T12:47:42.233Z,19.30
2024-01-05T12:50:32.003Z,23.20
2024-01-05T12:53:20.821Z,22.80
2024-01-05T12:56:12.449Z,30.70
2024-01-05T12:58:59.574Z,28.10
2024-01-05T13:01:46.345Z,20.90
2024-01-05T13:04:40.705Z,26.90
2024-01-05T13:07:28.836Z,31.10
2024-01-05T13:10:15.483Z,30.90
2024-01-05T13:13:02.254Z,25.30
2024-01-05T13:15:49.266Z,32.10
2024-01-05T13:18:37.482Z,32.40
2024-01-05T13:21:24.791Z,25.70
2024-01-05T13:24:11.914Z,25.10
2024-01-05T13:27:01.815Z,28.50
2024-01-05T13:29:51.192Z,34.10
2024-01-05T13:32:39.353Z,31.30
2024-01-05T13:35:28.187Z,22.70
2024-01-05T13:38:15.581Z,35.40
2024-01-05T13:41:04.107Z,27.10
2024-01-05T13:43:51.475Z,25.20
2024-01-05T13:46:38.934Z,28.50
2024-01-05T13:49:27.236Z,47.90
2024-01-05T13:52:17.021Z,33.90
2024-01-05T13:55:04.210Z,22.60
2024-01-05T13:57:51.128Z,23.90
2024-01-05T14:00:37.914Z,23.00
2024-01-05T14:03:26.967Z,25.20
2024-01-05T14:06:14.206Z,32.50
2024-01-05T14:09:02.743Z,32.10
2024-01-05T14:11:51.425Z,32.50
2024-01-05T14:14:39.288Z,31.40
2024-01-05T14:17:26.627Z,69.40
2024-01-05T14:20:15.464Z,38.60
2024-01-05T14:23:04.161Z,37.70
2024-01-05T14:25:51.106Z,32.40
2024-01-05T14:28:46.132Z,31.30
2024-01-05T14:31:36.476Z,32.40
2024-01-05T14:34:23.513Z,30.00
2024-01-05T14:37:10.722Z,33.00
2024-01-05T14:39:58.161Z,34.10
2024-01-05T14:42:45.257Z,36.20
2024-01-05T14:45:31.986Z,39.40
2024-01-05T14:48:19.260Z,43.60
2024-01-05T14:51:06.374Z,47.70
2024-01-05T14:53:53.415Z,45.90
2024-01-05T14:56:40.727Z,46.90
2024-01-05T14:59:27.585Z,49.00
2024-01-05T15:02:14.782Z,51.60
2024-01-05T15:05:01.672Z,45.60
2024-01-05T15:07:48.239Z,41.90
2024-01-05T15:10:37.545Z,51.70
2024-01-05T15:13:24.506Z,47.10
2024-01-05T15:16:11.187Z,40.90
2024-01-05T15:18:58.121Z,44.60
2024-01-05T15:21:45.631Z,44.30
2024-01-05T15:24:32.783Z,42.60
2024-01-05T15:27:19.975Z,44.50
2024-01-05T15:30:07.398Z,44.50
2024-01-05T15:32:54.249Z,48.30
2024-01-05T15:35:41.992Z,48.20
2024-01-05T15:38:28.771Z,48.10
2024-01-05T15:41:15.416Z,39.00
2024-01-05T15:44:03.177Z,41.40
2024-01-05T15:46:50.561Z,51.60
2024-01-05T15:49:37.795Z,41.80
2024-01-05T15:52:24.543Z,45.20
2024-01-05T15:55:11.396Z,56.40
2024-01-05T15:57:58.280Z,45.10
2024-01-05T16:00:45.611Z,40.10
2024-01-05T16:03:34.154Z,40.00
2024-01-05T16:06:21.419Z,41.00
2024-01-05T16:09:08.363Z,52.90
2024-01-05T16:11:55.631Z,41.40
2024-01-05T16:14:48.556Z,36.70
2024-01-05T16:17:38.462Z,35.50
2024-01-05T16:20:25.820Z,37.90
2024-01-05T16:23:12.388Z,40.00
2024-01-05T16:25:59.120Z,36.90
2024-01-05T16:28:46.379Z,37.20
2024-01-05T16:31:33.348Z,41.30
2024-01-05T16:34:20.633Z,34.30
2024-01-05T16:37:08.117Z,34.60
2024-01-05T16:39:54.964Z,34.00
2024-01-05T16:42:42.078Z,42.50
2024-01-05T16:45:28.834Z,28.10
2024-01-05T16:48:15.361Z,47.70
2024-01-05T16:51:02.941Z,42.50
2024-01-05T16:53:57.163Z,44.30
2024-01-05T16:56:46.842Z,39.50
2024-01-05T16:59:36.678Z,35.40
2024-01-05T17:02:23.490Z,40.00
2024-01-05T17:05:10.204Z,71.30
2024-01-05T17:07:57.274Z,49.00
2024-01-05T17:10:48.032Z,37.00
2024-01-05T17:13:36.120Z,41.40
2024-01-05T17:16:26.023Z,45.10
2024-01-05T17:19:19.898Z,35.70
2024-01-05T17:22:06.903Z,30.30
2024-01-05T17:24:54.203Z,34.80
2024-01-05T17:27:41.407Z,35.10
2024-01-05T17:30:28.412Z,31.50
2024-01-05T17:33:17.579Z,43.80
2024-01-05T17:36:06.744Z,35.80
2024-01-05T17:38:56.168Z,44.60
2024-01-05T17:41:43.689Z,41.30
2024-01-05T17:44:32.764Z,49.50
2024-01-05T17:47:22.584Z,47.50
2024-01-05T17:50:10.088Z,59.60
2024-01-05T17:52:57.198Z,41.60
2024-01-05T17:55:43.996Z,47.60
2024-01-05T17:58:31.008Z,42.60
2024-01-05T18:01:17.945Z,39.00
2024-01-05T18:04:05.021Z,28.40
2024-01-05T18:06:51.912Z,38.70
2024-01-05T18:09:41.357Z,39.10
2024-01-05T18:12:28.415Z,44.40
2024-01-05T18:15:16.904Z,35.30
2024-01-05T18:18:05.618Z,32.30
2024-01-05T18:20:52.496Z,38.30
2024-01-05T18:23:39.344Z,39.00
2024-01-05T18:26:35.867Z,41.60
2024-01-05T18:29:28.768Z,39.20
2024-01-05T18:32:16.880Z,42.90
2024-01-05T18:35:05.578Z,49.00
2024-01-05T18:37:53.147Z,46.50
2024-01-05T18:40:40.133Z,37.40
2024-01-05T18:43:27.814Z,37.10
2024-01-05T18:46:19.260Z,36.30
2024-01-05T18:49:07.642Z,37.40
2024-01-05T18:51:56.540Z,36.20
2024-01-05T18:54:44.061Z,33.10
2024-01-05T18:57:30.925Z,34.00
2024-01-05T19:00:18.297Z,31.90
2024-01-05T19:03:05.873Z,43.40
2024-01-05T19:05:54.041Z,35.80
2024-01-05T19:08:41.425Z,57.40
2024-01-05T19:11:28.933Z,46.90
2024-01-05T19:14:15.597Z,45.40
2024-01-05T19:17:02.536Z,38.80
2024-01-05T19:19:51.548Z,43.80
2024-01-05T19:22:42.390Z,43.90
2024-01-05T19:25:29.268Z,35.30
2024-01-05T19:28:16.557Z,32.80
2024-01-05T19:31:05.653Z,33.20
2024-01-05T19:33:53.730Z,39.80
2024-01-05T19:36:47.285Z,40.70
2024-01-05T19:39:34.729Z,47.80
2024-01-05T19:42:21.784Z,39.20
2024-01-05T19:45:13.518Z,41.30
2024-01-05T19:48:01.929Z,34.80
2024-01-05T19:50:49.092Z,40.30
2024-01-05T19:53:43.277Z,39.10
2024-01-05T19:56:32.045Z,38.70
2024-01-05T19:59:21.893Z,33.00
2024-01-05T20:02:10.502Z,37.80
2024-01-05T20:04:57.579Z,36.60
2024-01-05T20:07:44.962Z,39.30
2024-01-05T20:10:32.091Z,32.60
2024-01-05T20:13:19.444Z,27.70
2024-01-05T20:16:07.623Z,62.70
2024-01-05T20:18:54.713Z,40.90
2024-01-05T20:21:44.672Z,47.60
2024-01-05T20:24:32.747Z,42.30
2024-01-05T20:27:20.334Z,38.20
2024-01-05T20:30:10.090Z,40.20
2024-01-05T20:32:56.979Z,44.00
2024-01-05T20:35:47.696Z,30.00
2024-01-05T20:38:34.544Z,31.60
2024-01-05T20:41:21.744Z,43.60
2024-01-05T20:44:12.696Z,56.60
2024-01-05T20:47:05.821Z,50.10
2024-01-05T20:49:55.771Z,38.60
2024-01-05T20:52:42.728Z,37.50
2024-01-05T20:55:29.786Z,48.70
2024-01-05T20:58:17.132Z,42.70
2024-01-05T21:01:04.991Z,33.70
2024-01-05T21:03:53.797Z,45.00
2024-01-05T21:06:45.146Z,32.40
2024-01-05T21:09:32.307Z,34.00
2024-01-05T21:12:20.191Z,37.20
2024-01-05T21:15:07.777Z,42.00
2024-01-05T21:17:54.693Z,36.80
2024-01-05T21:20:41.853Z,35.90
2024-01-05T21:23:28.697Z,32.00
2024-01-05T21:26:15.507Z,43.30
2024-01-05T21:29:04.212Z,41.60
2024-01-05T21:31:57.789Z,33.40
2024-01-05T21:34:45.303Z,38.40
2024-01-05T21:37:32.441Z,39.80
2024-01-05T21:40:19.667Z,36.40
2024-01-05T21:43:07.144Z,41.30
2024-01-05T21:45:55.399Z,44.40
2024-01-05T21:48:42.385Z,42.40
2024-01-05T21:51:29.527Z,31.80
2024-01-05T21:54:16.950Z,35.90
2024-01-05T21:57:04.535Z,31.20
2024-01-05T21:59:51.434Z,44.70
2024-01-05T22:02:38.160Z,63.50
2024-01-05T22:05:25.525Z,40.40
2024-01-05T22:08:12.160Z,48.00
2024-01-05T22:10:59.445Z,55.10
2024-01-05T22:13:45.954Z,52.60
2024-01-05T22:16:32.805Z,40.80
2024-01-05T22:19:20.063Z,39.70
2024-01-05T22:22:10.651Z,30.60
2024-01-05T22:24:58.042Z,37.30
2024-01-05T22:27:46.328Z,40.60
2024-01-05T22:30:33.718Z,36.60
2024-01-05T22:33:21.117Z,35.20
2024-01-05T22:36:11.885Z,34.50
2024-01-05T22:38:58.898Z,37.50
2024-01-05T22:41:45.786Z,35.80
2024-01-05T22:44:34.665Z,33.60
2024-01-05T22:47:25.238Z,31.20
2024-01-05T22:50:12.363Z,37.00
2024-01-05T22:52:59.363Z,36.90
2024-01-05T22:55:46.724Z,31.00
2024-01-05T22:58:36.944Z,28.60
2024-01-05T23:01:26.714Z,29.90
2024-01-05T23:04:16.784Z,31.80
2024-01-05T23:07:07.261Z,29.30
2024-01-05T23:09:54.492Z,29.80
2024-01-05T23:12:41.424Z,33.30
2024-01-05T23:15:28.139Z,28.90
2024-01-05T23:18:15.460Z,36.10
2024-01-05T23:21:02.655Z,31.40
2024-01-05T23:23:49.352Z,32.30
2024-01-05T23:26:36.028Z,30.80
2024-01-05T23:29:22.593Z,29.00
2024-01-05T23:32:09.708Z,32.40
2024-01-05T23:34:56.710Z,30.10
2024-01-05T23:37:46.588Z,30.00
2024-01-05T23:40:33.356Z,27.80
2024-01-05T23:43:20.139Z,24.60
2024-01-05T23:46:06.794Z,26.80
2024-01-05T23:48:54.278Z,27.90
2024-01-05T23:51:41.220Z,27.60
2024-01-05T23:54:28.258Z,24.40
2024-01-05T23:57:17.923Z,27.60
